sensor_id;sensor_type;location;lat;lon;timestamp;temperature;humidity
51175;DHT22;37240;50.104;20.010;2023-08-21T00:04:47;26.50;90.70
51175;DHT22;37240;50.104;20.010;2023-08-21T00:09:47;26.40;91.00
51175;DHT22;37240;50.104;20.010;2023-08-21T00:14:48;26.40;91.20
51175;DHT22;37240;50.104;20.010;2023-08-21T00:19:49;26.30;91.50
51175;DHT22;37240;50.104;20.010;2023-08-21T00:24:49;26.20;91.90
51175;DHT22;37240;50.104;20.010;2023-08-21T00:29:50;26.10;92.30
51175;DHT22;37240;50.104;20.010;2023-08-21T00:34:50;26.10;92.50
51175;DHT22;37240;50.104;20.010;2023-08-21T00:39:51;26.00;92.90
51175;DHT22;37240;50.104;20.010;2023-08-21T00:44:51;26.00;93.10
51175;DHT22;37240;50.104;20.010;2023-08-21T00:49:52;25.80;93.40
51175;DHT22;37240;50.104;20.010;2023-08-21T00:54:53;25.80;93.70
51175;DHT22;37240;50.104;20.010;2023-08-21T00:59:54;25.60;94.10
51175;DHT22;37240;50.104;20.010;2023-08-21T01:04:55;25.70;94.20
51175;DHT22;37240;50.104;20.010;2023-08-21T01:10:14;25.80;94.20
51175;DHT22;37240;50.104;20.010;2023-08-21T01:15:16;25.70;94.40
51175;DHT22;37240;50.104;20.010;2023-08-21T01:20:17;25.60;94.50
51175;DHT22;37240;50.104;20.010;2023-08-21T01:25:18;25.70;94.50
51175;DHT22;37240;50.104;20.010;2023-08-21T01:30:19;25.60;95.20
51175;DHT22;37240;50.104;20.010;2023-08-21T01:35:20;25.60;95.10
51175;DHT22;37240;50.104;20.010;2023-08-21T01:40:24;25.50;95.30
51175;DHT22;37240;50.104;20.010;2023-08-21T01:45:26;25.50;95.30
51175;DHT22;37240;50.104;20.010;2023-08-21T01:50:27;25.40;95.40
51175;DHT22;37240;50.104;20.010;2023-08-21T01:55:28;25.30;95.80
51175;DHT22;37240;50.104;20.010;2023-08-21T02:00:28;25.20;96.10
51175;DHT22;37240;50.104;20.010;2023-08-21T02:05:29;25.10;96.30
51175;DHT22;37240;50.104;20.010;2023-08-21T02:10:30;25.10;96.40
51175;DHT22;37240;50.104;20.010;2023-08-21T02:15:31;25.10;96.50
51175;DHT22;37240;50.104;20.010;2023-08-21T02:20:31;25.00;96.70
51175;DHT22;37240;50.104;20.010;2023-08-21T02:25:32;25.00;96.80
51175;DHT22;37240;50.104;20.010;2023-08-21T02:30:33;25.00;96.80
51175;DHT22;37240;50.104;20.010;2023-08-21T02:35:33;25.00;97.10
51175;DHT22;37240;50.104;20.010;2023-08-21T02:40:34;25.00;97.20
51175;DHT22;37240;50.104;20.010;2023-08-21T02:45:34;24.80;97.40
51175;DHT22;37240;50.104;20.010;2023-08-21T02:50:35;24.80;97.60
51175;DHT22;37240;50.104;20.010;2023-08-21T02:55:35;24.80;97.60
51175;DHT22;37240;50.104;20.010;2023-08-21T03:00:36;24.70;97.80
51175;DHT22;37240;50.104;20.010;2023-08-21T03:05:37;24.70;97.80
51175;DHT22;37240;50.104;20.010;2023-08-21T03:10:37;24.80;98.00
51175;DHT22;37240;50.104;20.010;2023-08-21T03:15:38;24.60;98.10
51175;DHT22;37240;50.104;20.010;2023-08-21T03:20:46;24.50;98.20
51175;DHT22;37240;50.104;20.010;2023-08-21T03:25:46;24.50;98.60
51175;DHT22;37240;50.104;20.010;2023-08-21T03:30:47;24.50;98.60
51175;DHT22;37240;50.104;20.010;2023-08-21T03:35:53;24.50;98.70
51175;DHT22;37240;50.104;20.010;2023-08-21T03:40:54;24.40;98.90
51175;DHT22;37240;50.104;20.010;2023-08-21T03:45:54;24.40;98.90
51175;DHT22;37240;50.104;20.010;2023-08-21T03:50:55;24.40;98.90
51175;DHT22;37240;50.104;20.010;2023-08-21T03:55:55;24.30;99.00
51175;DHT22;37240;50.104;20.010;2023-08-21T04:00:56;24.40;99.10
51175;DHT22;37240;50.104;20.010;2023-08-21T04:05:56;24.40;98.90
51175;DHT22;37240;50.104;20.010;2023-08-21T04:10:57;24.50;98.70
51175;DHT22;37240;50.104;20.010;2023-08-21T04:15:58;24.70;98.70
51175;DHT22;37240;50.104;20.010;2023-08-21T04:20:59;24.90;98.30
51175;DHT22;37240;50.104;20.010;2023-08-21T04:26:03;25.10;97.80
51175;DHT22;37240;50.104;20.010;2023-08-21T04:31:05;25.30;97.50
51175;DHT22;37240;50.104;20.010;2023-08-21T04:36:05;25.50;97.50
51175;DHT22;37240;50.104;20.010;2023-08-21T04:41:07;26.00;96.40
51175;DHT22;37240;50.104;20.010;2023-08-21T04:46:08;26.40;95.80
51175;DHT22;37240;50.104;20.010;2023-08-21T04:51:08;27.00;95.00
51175;DHT22;37240;50.104;20.010;2023-08-21T04:56:09;27.50;93.70
51175;DHT22;37240;50.104;20.010;2023-08-21T05:01:09;27.90;92.70
51175;DHT22;37240;50.104;20.010;2023-08-21T05:06:10;28.10;92.00
51175;DHT22;37240;50.104;20.010;2023-08-21T05:11:10;28.50;91.60
51175;DHT22;37240;50.104;20.010;2023-08-21T05:16:11;29.00;90.80
51175;DHT22;37240;50.104;20.010;2023-08-21T05:21:11;29.20;89.60
51175;DHT22;37240;50.104;20.010;2023-08-21T05:26:12;29.50;88.80
51175;DHT22;37240;50.104;20.010;2023-08-21T05:31:13;29.60;87.30
51175;DHT22;37240;50.104;20.010;2023-08-21T05:36:13;29.80;85.90
51175;DHT22;37240;50.104;20.010;2023-08-21T05:41:17;30.00;84.90
51175;DHT22;37240;50.104;20.010;2023-08-21T05:46:18;30.20;83.50
51175;DHT22;37240;50.104;20.010;2023-08-21T05:51:18;30.50;82.10
51175;DHT22;37240;50.104;20.010;2023-08-21T05:56:19;31.00;81.30
51175;DHT22;37240;50.104;20.010;2023-08-21T06:01:20;31.40;78.30
51175;DHT22;37240;50.104;20.010;2023-08-21T06:06:20;31.70;77.00
51175;DHT22;37240;50.104;20.010;2023-08-21T06:11:21;32.10;75.70
51175;DHT22;37240;50.104;20.010;2023-08-21T06:16:21;32.50;73.10
51175;DHT22;37240;50.104;20.010;2023-08-21T06:21:22;32.80;71.60
51175;DHT22;37240;50.104;20.010;2023-08-21T06:26:22;33.30;69.90
51175;DHT22;37240;50.104;20.010;2023-08-21T06:31:23;33.90;67.00
51175;DHT22;37240;50.104;20.010;2023-08-21T06:36:23;33.90;65.10
51175;DHT22;37240;50.104;20.010;2023-08-21T06:41:24;33.80;65.20
51175;DHT22;37240;50.104;20.010;2023-08-21T06:46:25;34.00;64.20
51175;DHT22;37240;50.104;20.010;2023-08-21T06:51:25;34.40;62.80
51175;DHT22;37240;50.104;20.010;2023-08-21T06:56:26;34.20;62.20
51175;DHT22;37240;50.104;20.010;2023-08-21T07:01:26;34.40;62.30
51175;DHT22;37240;50.104;20.010;2023-08-21T07:06:30;35.00;60.90
51175;DHT22;37240;50.104;20.010;2023-08-21T07:11:31;35.30;59.20
51175;DHT22;37240;50.104;20.010;2023-08-21T07:16:31;35.20;59.20
51175;DHT22;37240;50.104;20.010;2023-08-21T07:21:32;34.90;59.80
51175;DHT22;37240;50.104;20.010;2023-08-21T07:26:32;34.60;60.50
51175;DHT22;37240;50.104;20.010;2023-08-21T07:31:33;34.10;61.10
51175;DHT22;37240;50.104;20.010;2023-08-21T07:36:34;33.90;62.00
51175;DHT22;37240;50.104;20.010;2023-08-21T07:41:35;33.80;63.40
51175;DHT22;37240;50.104;20.010;2023-08-21T07:46:35;33.90;63.50
51175;DHT22;37240;50.104;20.010;2023-08-21T07:51:36;34.10;62.20
51175;DHT22;37240;50.104;20.010;2023-08-21T07:56:37;34.10;62.50
51175;DHT22;37240;50.104;20.010;2023-08-21T08:01:38;33.90;63.50
51175;DHT22;37240;50.104;20.010;2023-08-21T08:06:38;34.00;64.40
51175;DHT22;37240;50.104;20.010;2023-08-21T08:11:39;34.00;63.50
51175;DHT22;37240;50.104;20.010;2023-08-21T08:16:39;34.20;62.90
51175;DHT22;37240;50.104;20.010;2023-08-21T08:21:40;34.20;62.20
51175;DHT22;37240;50.104;20.010;2023-08-21T08:26:41;34.20;62.30
51175;DHT22;37240;50.104;20.010;2023-08-21T08:31:41;34.20;61.90
51175;DHT22;37240;50.104;20.010;2023-08-21T08:36:42;34.10;59.80
51175;DHT22;37240;50.104;20.010;2023-08-21T08:41:54;33.80;60.20
51175;DHT22;37240;50.104;20.010;2023-08-21T08:46:56;33.60;61.20
51175;DHT22;37240;50.104;20.010;2023-08-21T08:51:58;33.30;64.00
51175;DHT22;37240;50.104;20.010;2023-08-21T08:56:59;32.80;65.40
51175;DHT22;37240;50.104;20.010;2023-08-21T09:02:00;32.30;66.20
51175;DHT22;37240;50.104;20.010;2023-08-21T09:07:08;32.00;67.70
51175;DHT22;37240;50.104;20.010;2023-08-21T09:12:13;31.70;68.80
51175;DHT22;37240;50.104;20.010;2023-08-21T09:17:15;31.60;69.40
51175;DHT22;37240;50.104;20.010;2023-08-21T09:22:16;31.40;70.60
51175;DHT22;37240;50.104;20.010;2023-08-21T09:27:17;31.30;71.50
51175;DHT22;37240;50.104;20.010;2023-08-21T09:32:18;31.10;72.20
51175;DHT22;37240;50.104;20.010;2023-08-21T09:37:18;31.10;72.20
51175;DHT22;37240;50.104;20.010;2023-08-21T09:42:19;31.10;72.40
51175;DHT22;37240;50.104;20.010;2023-08-21T09:47:20;31.00;72.00
51175;DHT22;37240;50.104;20.010;2023-08-21T09:52:21;31.00;73.00
51175;DHT22;37240;50.104;20.010;2023-08-21T09:57:23;31.10;73.10
51175;DHT22;37240;50.104;20.010;2023-08-21T10:02:24;31.30;72.70
51175;DHT22;37240;50.104;20.010;2023-08-21T10:07:27;31.60;72.40
51175;DHT22;37240;50.104;20.010;2023-08-21T10:12:29;31.90;70.80
51175;DHT22;37240;50.104;20.010;2023-08-21T10:17:30;31.90;70.60
51175;DHT22;37240;50.104;20.010;2023-08-21T10:27:41;32.30;68.00
51175;DHT22;37240;50.104;20.010;2023-08-21T10:32:49;32.30;68.40
51175;DHT22;37240;50.104;20.010;2023-08-21T10:48:38;32.70;66.80
51175;DHT22;37240;50.104;20.010;2023-08-21T10:53:39;32.80;66.60
51175;DHT22;37240;50.104;20.010;2023-08-21T10:58:43;32.80;68.20
51175;DHT22;37240;50.104;20.010;2023-08-21T11:03:50;32.90;67.20
51175;DHT22;37240;50.104;20.010;2023-08-21T11:08:50;33.20;67.20
51175;DHT22;37240;50.104;20.010;2023-08-21T11:13:54;33.50;66.90
51175;DHT22;37240;50.104;20.010;2023-08-21T11:18:54;33.40;65.40
51175;DHT22;37240;50.104;20.010;2023-08-21T11:23:55;33.50;66.40
51175;DHT22;37240;50.104;20.010;2023-08-21T11:28:56;33.70;64.00
51175;DHT22;37240;50.104;20.010;2023-08-21T11:33:56;33.70;62.70
51175;DHT22;37240;50.104;20.010;2023-08-21T11:39:02;33.80;62.80
51175;DHT22;37240;50.104;20.010;2023-08-21T11:44:03;33.80;62.60
51175;DHT22;37240;50.104;20.010;2023-08-21T11:49:04;33.90;61.40
51175;DHT22;37240;50.104;20.010;2023-08-21T11:54:06;33.90;61.40
51175;DHT22;37240;50.104;20.010;2023-08-21T11:59:07;34.00;62.20
51175;DHT22;37240;50.104;20.010;2023-08-21T12:04:16;34.00;61.00
51175;DHT22;37240;50.104;20.010;2023-08-21T12:09:17;34.20;60.30
51175;DHT22;37240;50.104;20.010;2023-08-21T12:14:18;34.30;58.90
51175;DHT22;37240;50.104;20.010;2023-08-21T12:19:18;34.30;58.80
51175;DHT22;37240;50.104;20.010;2023-08-21T12:24:19;34.40;58.70
51175;DHT22;37240;50.104;20.010;2023-08-21T12:29:19;34.30;59.00
51175;DHT22;37240;50.104;20.010;2023-08-21T12:34:20;34.20;58.90
51175;DHT22;37240;50.104;20.010;2023-08-21T12:39:20;34.10;58.90
51175;DHT22;37240;50.104;20.010;2023-08-21T12:44:21;34.00;59.00
51175;DHT22;37240;50.104;20.010;2023-08-21T12:49:22;33.90;60.90
51175;DHT22;37240;50.104;20.010;2023-08-21T12:54:22;33.80;61.90
51175;DHT22;37240;50.104;20.010;2023-08-21T12:59:23;33.70;60.20
51175;DHT22;37240;50.104;20.010;2023-08-21T13:04:23;33.60;60.10
51175;DHT22;37240;50.104;20.010;2023-08-21T13:09:24;33.70;61.30
51175;DHT22;37240;50.104;20.010;2023-08-21T13:14:24;33.70;61.70
51175;DHT22;37240;50.104;20.010;2023-08-21T13:19:25;33.70;61.70
51175;DHT22;37240;50.104;20.010;2023-08-21T13:24:26;33.80;62.50
51175;DHT22;37240;50.104;20.010;2023-08-21T13:29:26;33.70;62.70
51175;DHT22;37240;50.104;20.010;2023-08-21T13:34:27;33.60;63.80
51175;DHT22;37240;50.104;20.010;2023-08-21T13:39:27;33.50;63.00
51175;DHT22;37240;50.104;20.010;2023-08-21T13:44:28;33.50;63.70
51175;DHT22;37240;50.104;20.010;2023-08-21T13:49:28;33.40;64.00
51175;DHT22;37240;50.104;20.010;2023-08-21T13:54:29;33.30;61.70
51175;DHT22;37240;50.104;20.010;2023-08-21T13:59:29;33.20;61.10
51175;DHT22;37240;50.104;20.010;2023-08-21T14:04:32;33.10;61.00
51175;DHT22;37240;50.104;20.010;2023-08-21T14:09:32;33.20;60.60
51175;DHT22;37240;50.104;20.010;2023-08-21T14:14:34;33.10;62.10
51175;DHT22;37240;50.104;20.010;2023-08-21T14:19:35;33.10;60.80
51175;DHT22;37240;50.104;20.010;2023-08-21T14:24:35;33.10;60.60
51175;DHT22;37240;50.104;20.010;2023-08-21T14:29:36;33.00;61.40
51175;DHT22;37240;50.104;20.010;2023-08-21T14:34:37;32.90;61.00
51175;DHT22;37240;50.104;20.010;2023-08-21T14:39:37;32.90;61.70
51175;DHT22;37240;50.104;20.010;2023-08-21T14:44:38;32.90;60.80
51175;DHT22;37240;50.104;20.010;2023-08-21T14:49:39;32.80;61.00
51175;DHT22;37240;50.104;20.010;2023-08-21T14:54:39;32.90;61.90
51175;DHT22;37240;50.104;20.010;2023-08-21T14:59:40;32.90;61.20
51175;DHT22;37240;50.104;20.010;2023-08-21T15:04:41;32.80;61.00
51175;DHT22;37240;50.104;20.010;2023-08-21T15:09:41;32.80;61.50
51175;DHT22;37240;50.104;20.010;2023-08-21T15:14:42;32.70;62.50
51175;DHT22;37240;50.104;20.010;2023-08-21T15:19:42;32.70;62.60
51175;DHT22;37240;50.104;20.010;2023-08-21T15:24:43;32.70;63.20
51175;DHT22;37240;50.104;20.010;2023-08-21T15:29:43;32.70;63.60
51175;DHT22;37240;50.104;20.010;2023-08-21T15:34:44;32.50;63.50
51175;DHT22;37240;50.104;20.010;2023-08-21T15:39:44;32.50;64.60
51175;DHT22;37240;50.104;20.010;2023-08-21T15:44:45;32.50;65.60
51175;DHT22;37240;50.104;20.010;2023-08-21T15:49:46;32.40;66.20
51175;DHT22;37240;50.104;20.010;2023-08-21T15:54:47;32.30;66.30
51175;DHT22;37240;50.104;20.010;2023-08-21T15:59:48;32.30;66.60
51175;DHT22;37240;50.104;20.010;2023-08-21T16:04:48;32.20;67.00
51175;DHT22;37240;50.104;20.010;2023-08-21T16:09:49;32.30;67.20
51175;DHT22;37240;50.104;20.010;2023-08-21T16:14:49;32.20;67.80
51175;DHT22;37240;50.104;20.010;2023-08-21T16:19:50;32.10;70.80
51175;DHT22;37240;50.104;20.010;2023-08-21T16:24:50;31.90;69.40
51175;DHT22;37240;50.104;20.010;2023-08-21T16:29:51;31.90;70.00
51175;DHT22;37240;50.104;20.010;2023-08-21T16:34:52;31.80;70.40
51175;DHT22;37240;50.104;20.010;2023-08-21T16:39:52;31.80;69.60
51175;DHT22;37240;50.104;20.010;2023-08-21T16:44:53;31.90;69.60
51175;DHT22;37240;50.104;20.010;2023-08-21T16:49:53;31.90;69.40
51175;DHT22;37240;50.104;20.010;2023-08-21T16:54:54;31.80;71.70
51175;DHT22;37240;50.104;20.010;2023-08-21T16:59:54;31.40;73.20
51175;DHT22;37240;50.104;20.010;2023-08-21T17:04:55;31.50;74.50
51175;DHT22;37240;50.104;20.010;2023-08-21T17:09:55;31.40;75.30
51175;DHT22;37240;50.104;20.010;2023-08-21T17:14:56;31.20;76.30
51175;DHT22;37240;50.104;20.010;2023-08-21T17:19:57;31.20;77.50
51175;DHT22;37240;50.104;20.010;2023-08-21T17:24:57;31.10;78.40
51175;DHT22;37240;50.104;20.010;2023-08-21T17:29:58;31.00;79.00
51175;DHT22;37240;50.104;20.010;2023-08-21T17:34:58;30.90;79.50
51175;DHT22;37240;50.104;20.010;2023-08-21T17:39:59;30.80;80.00
51175;DHT22;37240;50.104;20.010;2023-08-21T17:44:59;30.60;81.30
51175;DHT22;37240;50.104;20.010;2023-08-21T17:50:00;30.50;82.00
51175;DHT22;37240;50.104;20.010;2023-08-21T17:55:01;30.40;82.90
51175;DHT22;37240;50.104;20.010;2023-08-21T18:00:02;30.10;84.40
51175;DHT22;37240;50.104;20.010;2023-08-21T18:05:03;29.90;86.30
51175;DHT22;37240;50.104;20.010;2023-08-21T18:10:04;29.80;87.90
51175;DHT22;37240;50.104;20.010;2023-08-21T18:15:05;29.60;89.40
51175;DHT22;37240;50.104;20.010;2023-08-21T18:20:06;29.30;90.30
51175;DHT22;37240;50.104;20.010;2023-08-21T18:25:07;29.20;90.90
51175;DHT22;37240;50.104;20.010;2023-08-21T18:30:17;29.10;91.30
51175;DHT22;37240;50.104;20.010;2023-08-21T18:35:18;29.10;91.40
51175;DHT22;37240;50.104;20.010;2023-08-21T18:40:19;29.10;91.60
51175;DHT22;37240;50.104;20.010;2023-08-21T18:45:19;29.00;91.70
51175;DHT22;37240;50.104;20.010;2023-08-21T18:50:31;28.70;92.30
51175;DHT22;37240;50.104;20.010;2023-08-21T18:55:36;28.70;92.70
51175;DHT22;37240;50.104;20.010;2023-08-21T19:00:37;28.70;92.80
51175;DHT22;37240;50.104;20.010;2023-08-21T19:05:37;28.70;93.10
51175;DHT22;37240;50.104;20.010;2023-08-21T19:10:38;28.50;93.50
51175;DHT22;37240;50.104;20.010;2023-08-21T19:15:38;28.50;93.60
51175;DHT22;37240;50.104;20.010;2023-08-21T19:20:39;28.50;93.70
51175;DHT22;37240;50.104;20.010;2023-08-21T19:25:40;28.50;93.70
51175;DHT22;37240;50.104;20.010;2023-08-21T19:30:40;28.40;94.00
51175;DHT22;37240;50.104;20.010;2023-08-21T19:35:41;28.40;94.10
51175;DHT22;37240;50.104;20.010;2023-08-21T19:40:41;28.30;94.10
51175;DHT22;37240;50.104;20.010;2023-08-21T19:45:42;28.20;94.20
51175;DHT22;37240;50.104;20.010;2023-08-21T19:50:43;28.10;94.20
51175;DHT22;37240;50.104;20.010;2023-08-21T19:55:46;27.90;94.40
51175;DHT22;37240;50.104;20.010;2023-08-21T20:00:48;27.90;94.60
51175;DHT22;37240;50.104;20.010;2023-08-21T20:05:49;27.80;94.70
51175;DHT22;37240;50.104;20.010;2023-08-21T20:10:49;27.90;94.60
51175;DHT22;37240;50.104;20.010;2023-08-21T20:15:50;27.90;94.50
51175;DHT22;37240;50.104;20.010;2023-08-21T20:20:51;28.00;94.40
51175;DHT22;37240;50.104;20.010;2023-08-21T20:25:53;27.90;94.30
51175;DHT22;37240;50.104;20.010;2023-08-21T20:31:00;27.90;94.30
51175;DHT22;37240;50.104;20.010;2023-08-21T20:36:00;27.80;94.40
51175;DHT22;37240;50.104;20.010;2023-08-21T20:41:02;27.80;94.60
51175;DHT22;37240;50.104;20.010;2023-08-21T20:46:04;27.80;94.80
51175;DHT22;37240;50.104;20.010;2023-08-21T20:51:05;27.80;95.10
51175;DHT22;37240;50.104;20.010;2023-08-21T20:56:06;27.70;95.40
51175;DHT22;37240;50.104;20.010;2023-08-21T21:01:07;27.60;95.50
51175;DHT22;37240;50.104;20.010;2023-08-21T21:06:07;27.60;95.40
51175;DHT22;37240;50.104;20.010;2023-08-21T21:11:08;27.60;95.60
51175;DHT22;37240;50.104;20.010;2023-08-21T21:16:08;27.60;95.60
51175;DHT22;37240;50.104;20.010;2023-08-21T21:21:09;27.50;95.70
51175;DHT22;37240;50.104;20.010;2023-08-21T21:26:11;27.60;95.60
51175;DHT22;37240;50.104;20.010;2023-08-21T21:31:12;27.60;95.70
51175;DHT22;37240;50.104;20.010;2023-08-21T21:36:12;27.60;95.60
51175;DHT22;37240;50.104;20.010;2023-08-21T21:41:13;27.50;95.60
51175;DHT22;37240;50.104;20.010;2023-08-21T21:46:24;27.50;96.10
51175;DHT22;37240;50.104;20.010;2023-08-21T21:51:25;27.50;95.80
51175;DHT22;37240;50.104;20.010;2023-08-21T21:56:25;27.30;95.90
51175;DHT22;37240;50.104;20.010;2023-08-21T22:01:26;27.40;95.90
51175;DHT22;37240;50.104;20.010;2023-08-21T22:06:27;27.40;95.90
51175;DHT22;37240;50.104;20.010;2023-08-21T22:11:27;27.30;95.90
51175;DHT22;37240;50.104;20.010;2023-08-21T22:16:28;27.20;96.00
51175;DHT22;37240;50.104;20.010;2023-08-21T22:21:29;27.20;96.10
51175;DHT22;37240;50.104;20.010;2023-08-21T22:26:30;27.10;96.20
51175;DHT22;37240;50.104;20.010;2023-08-21T22:31:30;27.10;96.40
51175;DHT22;37240;50.104;20.010;2023-08-21T22:36:31;27.10;96.40
51175;DHT22;37240;50.104;20.010;2023-08-21T22:41:31;27.00;96.50
51175;DHT22;37240;50.104;20.010;2023-08-21T22:46:32;27.00;96.60
51175;DHT22;37240;50.104;20.010;2023-08-21T22:51:32;26.90;96.60
51175;DHT22;37240;50.104;20.010;2023-08-21T22:56:35;26.90;96.70
51175;DHT22;37240;50.104;20.010;2023-08-21T23:01:36;26.90;96.70
51175;DHT22;37240;50.104;20.010;2023-08-21T23:06:36;26.90;97.00
51175;DHT22;37240;50.104;20.010;2023-08-21T23:11:37;26.80;96.70
51175;DHT22;37240;50.104;20.010;2023-08-21T23:16:37;26.70;96.70
51175;DHT22;37240;50.104;20.010;2023-08-21T23:21:38;26.70;96.70
51175;DHT22;37240;50.104;20.010;2023-08-21T23:26:38;26.60;96.80
51175;DHT22;37240;50.104;20.010;2023-08-21T23:31:39;26.60;97.00
51175;DHT22;37240;50.104;20.010;2023-08-21T23:36:40;26.60;97.10
51175;DHT22;37240;50.104;20.010;2023-08-21T23:41:40;26.60;97.20
51175;DHT22;37240;50.104;20.010;2023-08-21T23:46:41;26.60;97.40
51175;DHT22;37240;50.104;20.010;2023-08-21T23:51:42;26.60;97.50
51175;DHT22;37240;50.104;20.010;2023-08-21T23:56:42;26.60;97.60
